Terminal Aerodrome Forecast
Issued by NWS

Home | Current Version | Previous Version | Text Only | Print | Product List | Glossary On
Versions: 1 2 3 4 5 6 7 8 9 10 11
000
FTUS45 KREV 221728
TAFCXP
TAF
KCXP 221728Z 2218/2318 VRB03KT P6SM SCT200
     FM221900 08009KT P6SM FEW080 FEW200
     FM230400 VRB03KT P6SM SKC=

USA.gov is the U.S. government's official web portal to all federal, state and local government web resources and services.